Airfield :
LOGIN :

Register | Disclaimer

   EN    FR    IT 

 










Legend :    VFR   Marginal VFR   IFR   Intensive IFR   Very Intensive IFR
Visi :
Ceiling :
>= 8 km
>= 3000ft
5 to 8 km
1000 to 3000 ft
1500m to 5 km
500 to 1000 ft
800 to 1500m
200 to 500 ft
< 800m
< 200 ft
Symbols :   Thunderstorms  Fog  Heavy snow  Heavy precipitations  Wind > 20 kt
SIGMETs :     Misc.  Thunderstorms  Icing  Turbulence  Mountain Waves  Volcanic Ashes






- Airport Elevation : 779 ft
- IATA code : CMF


LFLB - Chambery / Aix-Les-Bains

CURRENT METAR :
  • 121300Z AUTO 19007KT 9999 FEW032 08/M00 Q1007 NOSIG

EXPIRED METARs :
  • 121230Z AUTO 18005KT 100V220 9999 FEW032 08/M00 Q1008 NOSIG
  • 121200Z AUTO VRB02KT 9999 3800 FEW060 08/01 Q1009 NOSIG
  • 121130Z AUTO 04003KT 360V100 9999 SCT062 07/01 Q1010 NOSIG
  • 121100Z AUTO VRB03KT 9999 OVC062 06/02 Q1010 NOSIG
  • 121030Z AUTO VRB03KT 9999 OVC062 05/02 Q1011 NOSIG

TAF TAF LFLB
Valid from the 12 at 12:00 until the 13 at 12:00 UTC


121100Z 1212/1312 18007KT CAVOK
BECMG 1220/1221 7000 -RA OVC035
TEMPO 1221/1310 3000 RA OVC020
PROB30
TEMPO 1307/1310 VRB15G30KT 2000 SHRA FEW020CB BKN025
FM131000 02010KT 9999 SCT020TCU BKN030
TEMPO 1310/1312 02013KT 4000 SHRA FEW015CB BKN020TCU



MET'MAP, your aeronautical weather chart ! - Copyright ORBIFLY December 2007 - Disclaimer

ORBIFLY MET'MAP TEAM :

Programming & Development : Alexandra Zaïnal
Concept & original design : Baudouin d'Aumeries
Assistance for programming : Marc-Olivier Méhu
Technical & hardware support : Manuel Goepfert

Contact : metmap@orbifly.com




SOURCES & CREDITS :

   NOAA